createdAt,value
2022-12-13T00:01:44.916Z,-2.60
2022-12-13T00:03:47.901Z,-2.60
2022-12-13T00:05:50.501Z,-2.70
2022-12-13T00:07:53.420Z,-2.70
2022-12-13T00:09:56.045Z,-2.80
2022-12-13T00:11:58.538Z,-2.80
2022-12-13T00:14:01.452Z,-2.80
2022-12-13T00:16:06.174Z,-2.90
2022-12-13T00:18:08.749Z,-2.80
2022-12-13T00:20:12.287Z,-2.80
2022-12-13T00:22:16.435Z,-2.80
2022-12-13T00:24:18.939Z,-2.80
2022-12-13T00:26:23.434Z,-2.80
2022-12-13T00:28:25.940Z,-2.80
2022-12-13T00:30:31.311Z,-2.80
2022-12-13T00:32:34.574Z,-2.80
2022-12-13T00:34:37.204Z,-2.80
2022-12-13T00:36:39.695Z,-2.90
2022-12-13T00:38:42.465Z,-2.90
2022-12-13T00:40:44.928Z,-2.90
2022-12-13T00:42:47.412Z,-2.90
2022-12-13T00:44:49.910Z,-2.90
2022-12-13T00:46:52.800Z,-2.90
2022-12-13T00:48:59.187Z,-2.90
2022-12-13T00:51:06.122Z,-2.90
2022-12-13T00:53:09.627Z,-2.90
2022-12-13T00:55:12.373Z,-3.00
2022-12-13T00:57:15.206Z,-2.90
2022-12-13T00:59:17.704Z,-3.00
2022-12-13T01:01:21.210Z,-3.10
2022-12-13T01:03:25.094Z,-3.10
2022-12-13T01:06:04.213Z,-3.10
2022-12-13T01:07:32.229Z,-3.10
2022-12-13T01:09:34.787Z,-2.60
2022-12-13T01:11:37.254Z,-3.10
2022-12-13T01:13:39.737Z,-3.10
2022-12-13T01:15:42.743Z,-3.10
2022-12-13T01:17:46.726Z,-3.00
2022-12-13T01:19:49.213Z,-3.10
2022-12-13T01:21:54.865Z,-3.10
2022-12-13T01:24:01.277Z,-3.10
2022-12-13T01:26:04.577Z,-3.20
2022-12-13T01:28:07.083Z,-3.30
2022-12-13T01:30:10.722Z,-3.20
2022-12-13T01:32:13.547Z,-3.30
2022-12-13T01:34:17.523Z,-3.30
2022-12-13T01:36:27.012Z,-3.30
2022-12-13T01:38:26.302Z,-3.30
2022-12-13T01:40:29.329Z,-3.30
2022-12-13T01:42:31.848Z,-3.30
2022-12-13T01:44:52.054Z,-3.40
2022-12-13T01:46:54.709Z,-3.40
2022-12-13T01:49:02.418Z,-3.40
2022-12-13T01:51:06.869Z,-3.40
2022-12-13T01:53:11.128Z,-3.50
2022-12-13T01:55:14.814Z,-3.50
2022-12-13T01:57:19.288Z,-3.50
2022-12-13T01:59:22.350Z,-3.50
2022-12-13T02:01:25.523Z,-3.50
2022-12-13T02:03:28.105Z,-3.50
2022-12-13T02:05:33.271Z,-3.50
2022-12-13T02:07:37.008Z,-3.50
2022-12-13T02:09:39.724Z,-3.50
2022-12-13T02:11:44.250Z,-3.50
2022-12-13T02:13:47.864Z,-3.60
2022-12-13T02:15:52.479Z,-3.60
2022-12-13T02:18:03.086Z,-3.60
2022-12-13T02:20:23.253Z,-3.60
2022-12-13T02:22:31.059Z,-3.60
2022-12-13T02:24:41.373Z,-3.60
2022-12-13T02:26:48.042Z,-3.70
2022-12-13T02:28:55.141Z,-3.70
2022-12-13T02:30:59.490Z,-3.70
2022-12-13T02:33:07.067Z,-3.70
2022-12-13T02:35:10.985Z,-3.80
2022-12-13T02:37:17.938Z,-3.70
2022-12-13T02:39:30.720Z,-3.70
2022-12-13T02:41:27.702Z,-3.70
2022-12-13T02:43:33.720Z,-3.70
2022-12-13T02:45:39.319Z,-3.70
2022-12-13T02:47:42.798Z,-3.70
2022-12-13T02:49:47.104Z,-3.80
2022-12-13T02:51:50.017Z,-3.80
2022-12-13T02:53:52.504Z,-3.70
2022-12-13T02:55:54.973Z,-3.90
2022-12-13T02:57:57.510Z,-3.90
2022-12-13T03:00:02.041Z,-4.00
2022-12-13T03:02:09.587Z,-4.00
2022-12-13T03:04:14.397Z,-4.00
2022-12-13T03:06:34.037Z,-4.00
2022-12-13T03:08:37.501Z,-4.10
2022-12-13T03:10:42.684Z,-4.10
2022-12-13T03:13:04.944Z,-4.10
2022-12-13T03:15:09.833Z,-4.20
2022-12-13T03:17:14.137Z,-4.20
2022-12-13T03:19:16.828Z,-4.30
2022-12-13T03:21:19.384Z,-4.40
2022-12-13T03:23:22.542Z,-4.40
2022-12-13T03:25:31.919Z,-4.40
2022-12-13T03:27:31.477Z,-4.40
2022-12-13T03:29:33.963Z,-4.40
2022-12-13T03:31:36.557Z,-4.40
2022-12-13T03:33:39.130Z,-4.30
2022-12-13T03:35:44.462Z,-4.30
2022-12-13T03:37:46.779Z,-4.30
2022-12-13T03:39:49.279Z,-4.40
2022-12-13T03:41:52.096Z,-4.30
2022-12-13T03:43:54.573Z,-4.30
2022-12-13T03:45:57.218Z,-4.30
2022-12-13T03:47:59.693Z,-4.30
2022-12-13T03:50:25.451Z,-4.30
2022-12-13T03:52:06.547Z,-4.30
2022-12-13T03:54:09.024Z,-4.30
2022-12-13T03:56:11.492Z,-4.30
2022-12-13T03:58:13.993Z,-4.20
2022-12-13T04:00:17.113Z,-4.30
2022-12-13T04:02:30.814Z,-4.20
2022-12-13T04:04:23.912Z,-4.30
2022-12-13T04:06:31.254Z,-4.20
2022-12-13T04:08:30.689Z,-4.20
2022-12-13T04:10:34.758Z,-4.30
2022-12-13T04:12:55.405Z,-4.30
2022-12-13T04:14:59.698Z,-4.40
2022-12-13T04:17:02.440Z,-4.40
2022-12-13T04:19:05.104Z,-4.40
2022-12-13T04:21:07.584Z,-4.40
2022-12-13T04:23:10.771Z,-4.50
2022-12-13T04:25:13.592Z,-4.50
2022-12-13T04:27:17.688Z,-4.50
2022-12-13T04:29:20.253Z,-4.50
2022-12-13T04:31:22.944Z,-4.60
2022-12-13T04:33:25.446Z,-4.60
2022-12-13T04:35:27.940Z,-4.70
2022-12-13T04:37:30.915Z,-4.60
2022-12-13T04:39:34.229Z,-4.60
2022-12-13T04:41:37.983Z,-4.60
2022-12-13T04:43:40.457Z,-4.60
2022-12-13T04:45:42.988Z,-4.60
2022-12-13T04:47:45.645Z,-4.70
2022-12-13T04:49:48.136Z,-4.70
2022-12-13T04:51:51.063Z,-4.70
2022-12-13T04:53:54.930Z,-4.80
2022-12-13T04:55:57.396Z,-4.80
2022-12-13T04:57:59.885Z,-4.80
2022-12-13T05:00:02.451Z,-4.80
2022-12-13T05:02:05.264Z,-4.80
2022-12-13T05:04:07.846Z,-4.80
2022-12-13T05:06:26.729Z,-4.90
2022-12-13T05:08:15.934Z,-4.90
2022-12-13T05:10:35.969Z,-4.90
2022-12-13T05:12:24.173Z,-4.90
2022-12-13T05:14:26.627Z,-4.80
2022-12-13T05:16:29.230Z,-4.80
2022-12-13T05:18:32.084Z,-4.80
2022-12-13T05:20:35.436Z,-4.70
2022-12-13T05:22:38.102Z,-4.70
2022-12-13T05:24:40.584Z,-4.80
2022-12-13T05:26:43.066Z,-4.80
2022-12-13T05:28:45.547Z,-4.80
2022-12-13T05:30:48.010Z,-4.80
2022-12-13T05:32:50.699Z,-4.80
2022-12-13T05:34:53.177Z,-4.80
2022-12-13T05:36:55.761Z,-4.80
2022-12-13T05:38:58.388Z,-4.80
2022-12-13T05:41:00.845Z,-4.80
2022-12-13T05:43:03.461Z,-4.80
2022-12-13T05:45:08.861Z,-4.80
2022-12-13T05:47:11.433Z,-4.80
2022-12-13T05:49:17.529Z,-4.80
2022-12-13T05:51:20.103Z,-4.90
2022-12-13T05:53:30.717Z,-4.90
2022-12-13T05:55:26.993Z,-5.00
2022-12-13T05:57:29.465Z,-5.00
2022-12-13T05:59:33.608Z,-5.00
2022-12-13T06:01:36.114Z,-5.00
2022-12-13T06:03:40.923Z,-5.00
2022-12-13T06:05:44.114Z,-5.10
2022-12-13T06:07:46.741Z,-5.10
2022-12-13T06:09:49.234Z,-5.10
2022-12-13T06:11:52.029Z,-5.10
2022-12-13T06:14:00.598Z,-5.10
2022-12-13T06:16:02.059Z,-5.00
2022-12-13T06:18:04.629Z,-5.10
2022-12-13T06:20:23.393Z,-5.10
2022-12-13T06:22:12.727Z,-5.20
2022-12-13T06:24:16.146Z,-5.30
2022-12-13T06:26:18.614Z,-5.30
2022-12-13T06:28:21.116Z,-5.30
2022-12-13T06:30:23.621Z,-5.30
2022-12-13T06:32:26.126Z,-5.30
2022-12-13T06:34:29.034Z,-5.40
2022-12-13T06:36:31.569Z,-5.40
2022-12-13T06:38:34.035Z,-5.40
2022-12-13T06:40:36.628Z,-5.40
2022-12-13T06:42:39.106Z,-5.40
2022-12-13T06:44:41.848Z,-5.40
2022-12-13T06:46:44.638Z,-5.40
2022-12-13T06:48:47.108Z,-5.40
2022-12-13T06:50:49.565Z,-5.30
2022-12-13T06:52:52.080Z,-5.30
2022-12-13T06:54:59.767Z,-5.30
2022-12-13T06:56:58.809Z,-5.20
2022-12-13T06:59:02.295Z,-5.20
2022-12-13T07:01:06.276Z,-5.20
2022-12-13T07:03:11.356Z,-5.10
2022-12-13T07:05:13.811Z,-5.10
2022-12-13T07:07:16.466Z,-5.10
2022-12-13T07:09:18.962Z,-5.10
2022-12-13T07:11:24.433Z,-5.10
2022-12-13T07:13:26.937Z,-5.80
2022-12-13T07:15:32.580Z,-5.00
2022-12-13T07:17:35.573Z,-5.00
2022-12-13T07:19:38.111Z,-5.00
2022-12-13T07:21:40.725Z,-5.00
2022-12-13T07:23:43.577Z,-5.00
2022-12-13T07:25:51.455Z,-5.00
2022-12-13T07:28:01.454Z,-5.00
2022-12-13T07:30:03.938Z,-5.10
2022-12-13T07:32:06.404Z,-5.10
2022-12-13T07:34:14.131Z,-5.10
2022-12-13T07:36:13.893Z,-5.10
2022-12-13T07:38:16.368Z,-5.10
2022-12-13T07:40:19.204Z,-5.10
2022-12-13T07:42:21.892Z,-5.10
2022-12-13T07:44:24.410Z,-5.20
2022-12-13T07:46:32.686Z,-5.10
2022-12-13T07:48:31.680Z,-5.20
2022-12-13T07:50:37.227Z,-5.20
2022-12-13T07:52:38.525Z,-5.20
2022-12-13T07:54:41.105Z,-5.20
2022-12-13T07:56:43.578Z,-5.20
2022-12-13T07:58:46.802Z,-5.20
2022-12-13T08:00:49.317Z,-5.20
2022-12-13T08:02:54.090Z,-5.10
2022-12-13T08:04:56.619Z,-5.00
2022-12-13T08:07:08.498Z,-4.90
2022-12-13T08:09:15.418Z,-4.70
2022-12-13T08:11:18.936Z,-4.60
2022-12-13T08:13:21.784Z,-4.60
2022-12-13T08:15:25.209Z,-4.50
2022-12-13T08:17:28.123Z,-4.40
2022-12-13T08:19:30.684Z,-4.40
2022-12-13T08:21:54.054Z,-4.40
2022-12-13T08:23:42.148Z,-4.30
2022-12-13T08:25:51.328Z,-4.30
2022-12-13T08:27:54.063Z,-4.30
2022-12-13T08:29:58.376Z,-4.30
2022-12-13T08:32:01.616Z,-4.20
2022-12-13T08:34:05.484Z,-4.30
2022-12-13T08:36:08.913Z,-4.20
2022-12-13T08:38:11.848Z,-4.20
2022-12-13T08:40:14.748Z,-4.30
2022-12-13T08:42:19.732Z,-4.40
2022-12-13T08:44:22.414Z,-4.40
2022-12-13T08:46:24.998Z,-4.40
2022-12-13T08:48:27.699Z,-4.40
2022-12-13T08:50:30.636Z,-4.40
2022-12-13T08:52:41.663Z,-4.40
2022-12-13T08:54:38.546Z,-4.40
2022-12-13T08:56:43.650Z,-4.40
2022-12-13T08:58:47.066Z,-4.40
2022-12-13T09:00:49.677Z,-4.40
2022-12-13T09:02:52.299Z,-4.40
2022-12-13T09:04:55.217Z,-4.40
2022-12-13T09:06:57.700Z,-4.40
2022-12-13T09:09:03.577Z,-4.50
2022-12-13T09:11:11.492Z,-4.30
2022-12-13T09:13:12.048Z,-4.20
2022-12-13T09:15:22.554Z,-4.00
2022-12-13T09:17:24.395Z,-2.50
2022-12-13T09:19:26.882Z,-3.90
2022-12-13T09:21:31.626Z,-3.80
2022-12-13T09:23:35.637Z,-3.70
2022-12-13T09:25:38.243Z,-3.60
2022-12-13T09:27:40.748Z,-3.60
2022-12-13T09:29:43.397Z,-3.50
2022-12-13T09:31:52.652Z,-3.40
2022-12-13T09:33:50.212Z,-3.30
2022-12-13T09:35:52.673Z,-3.30
2022-12-13T09:37:55.609Z,-3.10
2022-12-13T09:39:58.101Z,-3.20
2022-12-13T09:42:01.729Z,-3.10
2022-12-13T09:44:06.920Z,-3.00
2022-12-13T09:46:23.235Z,-3.00
2022-12-13T09:48:22.503Z,-2.80
2022-12-13T09:50:26.221Z,-2.70
2022-12-13T09:52:33.698Z,-2.50
2022-12-13T09:54:36.533Z,-2.40
2022-12-13T09:56:39.166Z,-2.40
2022-12-13T09:58:41.649Z,-2.30
2022-12-13T10:00:44.505Z,-2.20
2022-12-13T10:02:48.407Z,-2.20
2022-12-13T10:04:51.690Z,-2.00
2022-12-13T10:06:54.618Z,-1.90
2022-12-13T10:08:58.914Z,-1.80
2022-12-13T10:11:02.606Z,-1.60
2022-12-13T10:13:08.983Z,-1.50
2022-12-13T10:15:13.361Z,-1.40
2022-12-13T10:17:20.317Z,-1.30
2022-12-13T10:19:29.580Z,-1.20
2022-12-13T10:21:31.584Z,-1.10
2022-12-13T10:23:53.086Z,-1.00
2022-12-13T10:25:45.169Z,-0.90
2022-12-13T10:27:48.793Z,-0.70
2022-12-13T10:29:58.252Z,-0.70
2022-12-13T10:32:02.572Z,-0.60
2022-12-13T10:34:05.732Z,-0.50
2022-12-13T10:36:11.163Z,-0.50
2022-12-13T10:38:23.193Z,-0.40
2022-12-13T10:40:33.602Z,-0.30
2022-12-13T10:42:36.393Z,-0.20
2022-12-13T10:44:38.917Z,-0.20
2022-12-13T10:46:42.390Z,-0.10
2022-12-13T10:48:48.974Z,0.00
2022-12-13T10:51:05.184Z,0.00
2022-12-13T10:53:12.719Z,0.10
2022-12-13T10:55:23.733Z,0.10
2022-12-13T10:57:25.829Z,0.20
2022-12-13T10:59:32.325Z,0.10
2022-12-13T11:01:35.426Z,0.00
2022-12-13T11:03:37.909Z,0.00
2022-12-13T11:05:40.691Z,0.10
2022-12-13T11:07:43.286Z,0.20
2022-12-13T11:09:45.779Z,0.30
2022-12-13T11:11:52.013Z,0.30
2022-12-13T11:13:59.645Z,0.20
2022-12-13T11:16:02.659Z,0.30
2022-12-13T11:18:07.018Z,0.20
2022-12-13T11:20:17.646Z,0.20
2022-12-13T11:22:21.945Z,0.30
2022-12-13T11:24:26.945Z,0.40
2022-12-13T11:26:30.949Z,0.30
2022-12-13T11:28:39.042Z,0.30
2022-12-13T11:30:43.753Z,0.30
2022-12-13T11:32:59.276Z,0.30
2022-12-13T11:35:02.916Z,0.50
2022-12-13T11:37:08.218Z,0.30
2022-12-13T11:39:14.894Z,0.30
2022-12-13T11:41:32.533Z,0.40
2022-12-13T11:43:26.288Z,0.40
2022-12-13T11:45:31.477Z,0.40
2022-12-13T11:47:36.901Z,0.50
2022-12-13T11:49:40.760Z,0.50
2022-12-13T11:51:45.261Z,0.50
2022-12-13T11:53:54.395Z,0.30
2022-12-13T11:55:58.789Z,0.60
2022-12-13T11:58:04.518Z,0.20
2022-12-13T12:00:13.312Z,0.70
2022-12-13T12:02:19.003Z,0.50
2022-12-13T12:04:24.240Z,0.50
2022-12-13T12:06:29.025Z,0.40
2022-12-13T12:08:34.384Z,0.40
2022-12-13T12:10:44.196Z,0.40
2022-12-13T12:12:46.558Z,0.40
2022-12-13T12:14:52.159Z,0.40
2022-12-13T12:16:56.036Z,0.50
2022-12-13T12:19:01.589Z,0.40
2022-12-13T12:21:06.972Z,0.50
2022-12-13T12:23:11.712Z,0.50
2022-12-13T12:25:18.928Z,0.50
2022-12-13T12:27:25.401Z,0.50
2022-12-13T12:29:44.308Z,0.50
2022-12-13T12:31:50.665Z,0.50
2022-12-13T12:33:56.072Z,0.50
2022-12-13T12:36:06.845Z,0.50
2022-12-13T12:38:14.974Z,0.50
2022-12-13T12:40:45.616Z,0.40
2022-12-13T12:43:03.742Z,0.40
2022-12-13T12:44:43.177Z,0.40
2022-12-13T12:49:16.375Z,0.40
2022-12-13T12:51:20.907Z,0.30
2022-12-13T12:53:31.759Z,0.30
2022-12-13T12:55:38.471Z,0.20
2022-12-13T12:57:43.803Z,0.20
2022-12-13T12:59:49.935Z,0.20
2022-12-13T13:01:55.285Z,0.20
2022-12-13T13:04:01.697Z,0.10
2022-12-13T13:06:05.906Z,0.10
2022-12-13T13:08:10.298Z,0.10
2022-12-13T13:10:16.593Z,0.10
2022-12-13T13:12:29.396Z,0.20
2022-12-13T13:14:30.554Z,0.20
2022-12-13T13:16:54.296Z,0.10
2022-12-13T13:19:00.321Z,0.10
2022-12-13T13:21:31.193Z,0.10
2022-12-13T13:23:40.706Z,0.10
2022-12-13T13:25:54.321Z,0.00
2022-12-13T13:27:43.580Z,0.00
2022-12-13T13:29:46.190Z,0.00
2022-12-13T13:32:01.896Z,0.10
2022-12-13T13:34:08.624Z,0.00
2022-12-13T13:36:28.978Z,-0.10
2022-12-13T13:38:28.368Z,-0.10
2022-12-13T13:40:35.170Z,-0.10
2022-12-13T13:42:39.618Z,-0.10
2022-12-13T13:45:03.275Z,-0.10
2022-12-13T13:47:13.768Z,-0.10
2022-12-13T13:49:16.403Z,-0.10
2022-12-13T13:51:27.450Z,-0.10
2022-12-13T13:53:52.161Z,-0.10
2022-12-13T13:56:01.844Z,-0.10
2022-12-13T13:58:27.881Z,-0.20
2022-12-13T14:00:37.220Z,-0.30
2022-12-13T14:02:58.694Z,-0.30
2022-12-13T14:05:13.379Z,-0.30
2022-12-13T14:07:33.738Z,-0.30
2022-12-13T14:10:01.138Z,-0.30
2022-12-13T14:12:13.436Z,-0.30
2022-12-13T14:14:30.035Z,-0.30
2022-12-13T14:17:04.085Z,-0.30
2022-12-13T14:19:24.749Z,-0.40
2022-12-13T14:21:30.504Z,-0.30
2022-12-13T14:23:37.900Z,-0.40
2022-12-13T14:25:50.963Z,-0.40
2022-12-13T14:27:50.937Z,-0.40
2022-12-13T14:29:58.497Z,-0.40
2022-12-13T14:31:58.414Z,-0.50
2022-12-13T14:34:02.399Z,-0.50
2022-12-13T14:36:05.278Z,-0.60
2022-12-13T14:38:18.215Z,-0.60
2022-12-13T14:40:24.917Z,-0.60
2022-12-13T14:42:29.625Z,-0.60
2022-12-13T14:44:34.024Z,-0.60
2022-12-13T14:46:36.580Z,-0.70
2022-12-13T14:48:44.408Z,-0.70
2022-12-13T14:50:47.232Z,-0.80
2022-12-13T14:52:50.415Z,-0.70
2022-12-13T14:54:57.967Z,-0.80
2022-12-13T14:57:00.463Z,-0.80
2022-12-13T14:59:04.436Z,-0.80
2022-12-13T15:01:07.440Z,-0.80
2022-12-13T15:03:12.686Z,-0.80
2022-12-13T15:05:17.002Z,-0.80
2022-12-13T15:07:24.479Z,-0.90
2022-12-13T15:09:30.056Z,-0.60
2022-12-13T15:11:34.857Z,-0.80
2022-12-13T15:13:40.376Z,-0.90
2022-12-13T15:15:42.866Z,-0.90
2022-12-13T15:17:45.453Z,-0.90
2022-12-13T15:19:49.966Z,-1.00
2022-12-13T15:22:00.152Z,-1.00
2022-12-13T15:24:01.897Z,-1.00
2022-12-13T15:26:09.620Z,-1.00
2022-12-13T15:28:18.262Z,-1.00
2022-12-13T15:30:18.306Z,-1.00
2022-12-13T15:32:22.601Z,-1.10
2022-12-13T15:34:34.585Z,-1.10
2022-12-13T15:36:37.806Z,-1.10
2022-12-13T15:38:42.205Z,-1.10
2022-12-13T15:40:46.461Z,-1.10
2022-12-13T15:42:49.961Z,-1.10
2022-12-13T15:44:54.256Z,-1.00
2022-12-13T15:46:59.140Z,-1.00
2022-12-13T15:49:02.282Z,-1.00
2022-12-13T15:51:05.729Z,-1.10
2022-12-13T15:53:18.254Z,-1.20
2022-12-13T15:55:28.353Z,-1.10
2022-12-13T15:57:31.743Z,-1.10
2022-12-13T15:59:35.130Z,-1.10
2022-12-13T16:01:37.619Z,-1.20
2022-12-13T16:03:42.172Z,-1.20
2022-12-13T16:05:48.474Z,-1.20
2022-12-13T16:07:56.426Z,-1.20
2022-12-13T16:09:55.733Z,-1.20
2022-12-13T16:11:59.613Z,-1.20
2022-12-13T16:14:26.489Z,-1.30
2022-12-13T16:16:30.386Z,-1.20
2022-12-13T16:18:33.482Z,-1.30
2022-12-13T16:20:36.067Z,-1.30
2022-12-13T16:22:38.610Z,-1.30
2022-12-13T16:24:41.118Z,-1.30
2022-12-13T16:26:44.684Z,-1.30
2022-12-13T16:28:47.223Z,-1.30
2022-12-13T16:31:02.042Z,-1.40
2022-12-13T16:33:19.033Z,-1.50
2022-12-13T16:35:10.157Z,-1.60
2022-12-13T16:37:26.526Z,-1.60
2022-12-13T16:39:17.446Z,-1.70
2022-12-13T16:41:21.461Z,-1.70
2022-12-13T16:43:32.768Z,-1.80
2022-12-13T16:45:41.565Z,-1.70
2022-12-13T16:47:44.734Z,-1.70
2022-12-13T16:49:41.914Z,-1.70
2022-12-13T16:51:48.280Z,-1.70
2022-12-13T16:53:48.727Z,-1.70
2022-12-13T16:55:58.185Z,-1.70
2022-12-13T16:57:56.533Z,-1.70
2022-12-13T16:59:59.078Z,-1.60
2022-12-13T17:02:01.933Z,-1.60
2022-12-13T17:04:11.748Z,-1.60
2022-12-13T17:06:11.687Z,-1.60
2022-12-13T17:08:17.262Z,-1.60
2022-12-13T17:10:26.254Z,-1.50
2022-12-13T17:12:33.075Z,-1.60
2022-12-13T17:14:42.063Z,-1.50
2022-12-13T17:16:46.219Z,-1.50
2022-12-13T17:18:52.213Z,-1.50
2022-12-13T17:20:58.629Z,-1.60
2022-12-13T17:23:05.743Z,-1.60
2022-12-13T17:25:13.413Z,-1.50
2022-12-13T17:27:21.373Z,-1.60
2022-12-13T17:29:27.921Z,-1.50
2022-12-13T17:31:36.307Z,-1.60
2022-12-13T17:33:47.805Z,-1.50
2022-12-13T17:35:52.608Z,-1.50
2022-12-13T17:38:02.716Z,-1.70
2022-12-13T17:40:09.504Z,-1.70
2022-12-13T17:42:12.734Z,-1.70
2022-12-13T17:44:15.404Z,-1.80
2022-12-13T17:46:21.341Z,-1.80
2022-12-13T17:48:30.634Z,-1.80
2022-12-13T17:50:36.354Z,-1.80
2022-12-13T17:52:42.451Z,-1.80
2022-12-13T17:54:47.565Z,-1.80
2022-12-13T17:56:53.958Z,-2.60
2022-12-13T17:59:03.982Z,-1.90
2022-12-13T18:01:11.137Z,-1.90
2022-12-13T18:03:13.724Z,-2.00
2022-12-13T18:05:18.140Z,-1.90
2022-12-13T18:07:21.111Z,-1.80
2022-12-13T18:09:23.628Z,-1.80
2022-12-13T18:11:34.820Z,-1.80
2022-12-13T18:13:31.012Z,-1.80
2022-12-13T18:15:35.260Z,-1.70
2022-12-13T18:18:09.372Z,-1.80
2022-12-13T18:19:42.326Z,-1.80
2022-12-13T18:21:47.768Z,-1.80
2022-12-13T18:23:55.469Z,-1.80
2022-12-13T18:25:59.628Z,-1.80
2022-12-13T18:28:02.547Z,-2.00
2022-12-13T18:30:05.980Z,-2.00
2022-12-13T18:32:08.574Z,-2.00
2022-12-13T18:34:11.084Z,-2.00
2022-12-13T18:36:13.547Z,-2.00
2022-12-13T18:38:16.014Z,-2.10
2022-12-13T18:40:18.635Z,-2.10
2022-12-13T18:42:21.127Z,-2.00
2022-12-13T18:44:23.650Z,-2.10
2022-12-13T18:46:26.480Z,-2.10
2022-12-13T18:48:29.276Z,-2.20
2022-12-13T18:50:32.900Z,-2.30
2022-12-13T18:52:35.559Z,-2.40
2022-12-13T18:54:38.042Z,-2.40
2022-12-13T18:56:40.523Z,-2.40
2022-12-13T18:58:43.160Z,-2.40
2022-12-13T19:00:45.632Z,-2.50
2022-12-13T19:02:49.191Z,-2.50
2022-12-13T19:04:54.948Z,-2.50
2022-12-13T19:06:58.378Z,-2.50
2022-12-13T19:09:00.846Z,-2.50
2022-12-13T19:11:03.665Z,-2.50
2022-12-13T19:13:06.849Z,-2.60
2022-12-13T19:15:10.481Z,-2.50
2022-12-13T19:17:13.772Z,-2.60
2022-12-13T19:19:16.699Z,-2.70
2022-12-13T19:21:20.363Z,-2.60
2022-12-13T19:23:23.243Z,-2.70
2022-12-13T19:25:26.567Z,-2.70
2022-12-13T19:27:29.053Z,-2.70
2022-12-13T19:29:31.725Z,-2.70
2022-12-13T19:31:34.650Z,-2.70
2022-12-13T19:33:37.623Z,-2.80
2022-12-13T19:35:41.237Z,-2.70
2022-12-13T19:37:43.749Z,-2.70
2022-12-13T19:39:46.268Z,-2.70
2022-12-13T19:41:48.757Z,-2.70
2022-12-13T19:43:53.041Z,-2.70
2022-12-13T19:45:55.804Z,-2.70
2022-12-13T19:47:58.296Z,-2.70
2022-12-13T19:50:00.850Z,-2.70
2022-12-13T19:52:03.365Z,-2.70
2022-12-13T19:54:06.033Z,-2.80
2022-12-13T19:56:10.277Z,-2.80
2022-12-13T19:58:12.799Z,-2.80
2022-12-13T20:00:16.467Z,-2.80
2022-12-13T20:02:19.456Z,-2.80
2022-12-13T20:04:22.320Z,-2.80
2022-12-13T20:06:24.882Z,-2.80
2022-12-13T20:08:27.336Z,-2.80
2022-12-13T20:10:30.019Z,-2.80
2022-12-13T20:12:38.951Z,-2.70
2022-12-13T20:14:37.865Z,-2.70
2022-12-13T20:16:42.171Z,-2.70
2022-12-13T20:18:45.554Z,-2.80
2022-12-13T20:21:10.570Z,-2.80
2022-12-13T20:22:54.193Z,-2.70
2022-12-13T20:24:56.781Z,-2.40
2022-12-13T20:26:59.238Z,-2.80
2022-12-13T20:29:01.924Z,-2.70
2022-12-13T20:31:08.523Z,-2.80
2022-12-13T20:33:11.166Z,-2.70
2022-12-13T20:35:13.775Z,-2.70
2022-12-13T20:37:16.648Z,-2.70
2022-12-13T20:39:20.475Z,-2.60
2022-12-13T20:41:23.967Z,-2.70
2022-12-13T20:43:26.920Z,-2.70
2022-12-13T20:45:29.674Z,-2.90
2022-12-13T20:47:37.625Z,-2.80
2022-12-13T20:49:36.901Z,-2.90
2022-12-13T20:51:41.091Z,-3.00
2022-12-13T20:53:44.997Z,-3.00
2022-12-13T20:55:48.399Z,-3.10
2022-12-13T20:57:51.069Z,-3.10
2022-12-13T20:59:53.575Z,-3.10
2022-12-13T21:01:56.130Z,-3.10
2022-12-13T21:03:59.915Z,-3.10
2022-12-13T21:06:02.478Z,-3.20
2022-12-13T21:08:43.105Z,-3.10
2022-12-13T21:13:06.088Z,-3.10
2022-12-13T21:15:09.396Z,-3.10
2022-12-13T21:17:11.936Z,-3.20
2022-12-13T21:19:15.612Z,-3.10
2022-12-13T21:21:18.100Z,-2.90
2022-12-13T21:23:22.312Z,-2.80
2022-12-13T21:25:24.836Z,-3.00
2022-12-13T21:27:27.353Z,-3.00
2022-12-13T21:29:29.857Z,-3.00
2022-12-13T21:31:32.546Z,-3.10
2022-12-13T21:33:35.750Z,-3.20
2022-12-13T21:35:38.267Z,-3.20
2022-12-13T21:37:41.080Z,-3.30
2022-12-13T21:39:43.560Z,-3.20
2022-12-13T21:41:46.042Z,-3.20
2022-12-13T21:43:48.921Z,-3.10
2022-12-13T21:45:51.500Z,-3.00
2022-12-13T21:47:54.156Z,-3.00
2022-12-13T21:49:56.655Z,-2.90
2022-12-13T21:51:59.140Z,-2.80
2022-12-13T21:54:01.645Z,-2.80
2022-12-13T21:56:23.409Z,-2.90
2022-12-13T21:58:44.272Z,-3.10
2022-12-13T22:00:46.765Z,-3.10
2022-12-13T22:02:49.227Z,-2.90
2022-12-13T22:04:52.355Z,-2.90
2022-12-13T22:06:54.803Z,-1.50
2022-12-13T22:08:57.289Z,-2.80
2022-12-13T22:11:20.833Z,-2.80
2022-12-13T22:13:19.032Z,-2.80
2022-12-13T22:15:21.628Z,-2.80
2022-12-13T22:17:29.713Z,-2.90
2022-12-13T22:19:29.594Z,-2.80
2022-12-13T22:21:32.278Z,-3.10
2022-12-13T22:23:35.415Z,-3.10
2022-12-13T22:25:37.895Z,-3.30
2022-12-13T22:27:40.416Z,-3.30
2022-12-13T22:29:43.100Z,-3.30
2022-12-13T22:31:48.956Z,-3.40
2022-12-13T22:33:50.426Z,-3.50
2022-12-13T22:35:54.066Z,-3.50
2022-12-13T22:38:01.313Z,-3.50
2022-12-13T22:40:01.070Z,-3.50
2022-12-13T22:42:04.119Z,-3.70
2022-12-13T22:44:07.183Z,-3.70
2022-12-13T22:46:12.379Z,-3.70
2022-12-13T22:48:15.422Z,-3.70
2022-12-13T22:50:20.232Z,-3.60
2022-12-13T22:52:27.681Z,-3.60
2022-12-13T22:54:29.143Z,-3.40
2022-12-13T22:56:31.797Z,-3.50
2022-12-13T22:58:35.354Z,-3.50
2022-12-13T23:00:38.327Z,-3.50
2022-12-13T23:02:40.950Z,-3.40
2022-12-13T23:04:43.507Z,-3.40
2022-12-13T23:06:45.978Z,-3.40
2022-12-13T23:08:50.836Z,-3.50
2022-12-13T23:11:11.641Z,-3.40
2022-12-13T23:13:14.135Z,-3.40
2022-12-13T23:15:16.784Z,-3.40
2022-12-13T23:17:19.401Z,-3.50
2022-12-13T23:21:26.708Z,-3.50
2022-12-13T23:23:30.022Z,-3.40
2022-12-13T23:25:33.446Z,-3.40
2022-12-13T23:27:36.047Z,-3.30
2022-12-13T23:29:38.680Z,-3.30
2022-12-13T23:31:42.100Z,-3.30
2022-12-13T23:33:44.854Z,-3.20
2022-12-13T23:35:49.138Z,-3.30
2022-12-13T23:37:51.645Z,-3.30
2022-12-13T23:39:54.244Z,-3.20
2022-12-13T23:41:57.640Z,-3.20
2022-12-13T23:44:00.421Z,-3.30
2022-12-13T23:46:03.827Z,-3.20
2022-12-13T23:48:06.899Z,-3.20
2022-12-13T23:50:09.949Z,-3.30
2022-12-13T23:52:13.497Z,-3.20
2022-12-13T23:54:17.909Z,-3.20
2022-12-13T23:56:21.105Z,-3.20
2022-12-13T23:58:24.062Z,-3.10
